createdAt,value
2023-01-13T00:00:21.620Z,87.12
2023-01-13T00:02:48.343Z,86.98
2023-01-13T00:05:14.967Z,87.19
2023-01-13T00:07:41.676Z,87.08
2023-01-13T00:10:10.233Z,86.69
2023-01-13T00:12:43.616Z,86.70
2023-01-13T00:15:11.164Z,87.15
2023-01-13T00:17:38.942Z,87.37
2023-01-13T00:20:06.418Z,86.75
2023-01-13T00:22:35.046Z,86.71
2023-01-13T00:25:02.102Z,86.64
2023-01-13T00:27:29.321Z,86.53
2023-01-13T00:29:56.049Z,86.88
2023-01-13T00:32:22.730Z,86.78
2023-01-13T00:34:49.365Z,87.20
2023-01-13T00:37:16.209Z,86.86
2023-01-13T00:39:42.845Z,86.99
2023-01-13T00:42:28.288Z,87.04
2023-01-13T00:44:54.917Z,86.79
2023-01-13T00:47:23.372Z,86.83
2023-01-13T00:49:53.052Z,86.73
2023-01-13T00:52:19.762Z,86.82
2023-01-13T00:54:46.429Z,87.02
2023-01-13T00:57:13.116Z,87.20
2023-01-13T00:59:39.746Z,87.21
2023-01-13T01:02:06.633Z,87.17
2023-01-13T01:04:33.965Z,86.98
2023-01-13T01:07:00.659Z,86.99
2023-01-13T01:09:33.521Z,86.86
2023-01-13T01:12:01.327Z,86.85
2023-01-13T01:14:28.299Z,86.49
2023-01-13T01:16:55.048Z,86.56
2023-01-13T01:19:21.748Z,86.33
2023-01-13T01:21:48.394Z,86.70
2023-01-13T01:24:16.621Z,86.58
2023-01-13T01:26:43.665Z,86.63
2023-01-13T01:29:13.107Z,86.43
2023-01-13T01:31:39.791Z,86.40
2023-01-13T01:34:06.436Z,86.44
2023-01-13T01:36:34.962Z,86.69
2023-01-13T01:39:01.692Z,86.57
2023-01-13T01:41:31.690Z,86.76
2023-01-13T01:44:08.223Z,86.71
2023-01-13T01:46:43.384Z,86.51
2023-01-13T01:49:18.175Z,86.70
2023-01-13T01:51:54.930Z,86.55
2023-01-13T01:54:28.770Z,86.86
2023-01-13T01:56:55.929Z,86.60
2023-01-13T01:59:23.435Z,87.15
2023-01-13T02:01:50.300Z,86.85
2023-01-13T02:04:26.585Z,86.80
2023-01-13T02:06:53.957Z,87.03
2023-01-13T02:09:20.608Z,87.11
2023-01-13T02:12:06.201Z,87.11
2023-01-13T02:14:35.147Z,87.49
2023-01-13T02:17:19.546Z,86.83
2023-01-13T02:19:52.216Z,87.09
2023-01-13T02:22:32.660Z,87.29
2023-01-13T02:25:14.352Z,86.73
2023-01-13T02:28:00.454Z,86.96
2023-01-13T02:31:08.467Z,86.89
2023-01-13T02:34:04.495Z,86.68
2023-01-13T02:36:39.797Z,86.67
2023-01-13T02:39:20.913Z,86.87
2023-01-13T02:42:16.795Z,86.99
2023-01-13T02:44:51.492Z,86.97
2023-01-13T02:47:22.530Z,87.17
2023-01-13T02:50:00.853Z,86.90
2023-01-13T02:52:40.323Z,86.88
2023-01-13T02:55:12.698Z,86.49
2023-01-13T02:57:41.391Z,86.80
2023-01-13T03:00:11.538Z,86.60
2023-01-13T03:02:38.972Z,86.78
2023-01-13T03:05:06.357Z,86.73
2023-01-13T03:07:45.795Z,86.61
2023-01-13T03:10:27.536Z,86.49
2023-01-13T03:13:09.716Z,86.76
2023-01-13T03:15:42.450Z,86.75
2023-01-13T03:18:29.905Z,86.58
2023-01-13T03:21:35.905Z,86.55
2023-01-13T03:24:26.034Z,86.53
2023-01-13T03:27:18.624Z,86.54
2023-01-13T03:30:00.982Z,86.63
2023-01-13T03:32:33.809Z,86.74
2023-01-13T03:35:04.206Z,86.87
2023-01-13T03:37:37.931Z,87.15
2023-01-13T03:40:13.381Z,86.58
2023-01-13T03:43:03.126Z,86.79
2023-01-13T03:45:33.356Z,86.67
2023-01-13T03:48:03.254Z,87.04
2023-01-13T03:50:37.389Z,87.25
2023-01-13T03:53:12.029Z,86.86
2023-01-13T03:55:44.601Z,86.94
2023-01-13T03:58:16.669Z,86.95
2023-01-13T04:01:10.384Z,86.99
2023-01-13T04:04:01.597Z,86.64
2023-01-13T04:06:45.415Z,87.35
2023-01-13T04:09:21.850Z,86.85
2023-01-13T04:12:10.970Z,86.53
2023-01-13T04:14:38.156Z,86.48
2023-01-13T04:17:05.332Z,86.54
2023-01-13T04:19:33.112Z,86.92
2023-01-13T04:22:00.107Z,87.08
2023-01-13T04:24:26.813Z,86.93
2023-01-13T04:26:53.540Z,87.00
2023-01-13T04:29:20.228Z,87.13
2023-01-13T04:31:46.877Z,87.15
2023-01-13T04:34:13.587Z,87.36
2023-01-13T04:36:40.375Z,87.15
2023-01-13T04:39:07.151Z,87.06
2023-01-13T04:41:53.757Z,87.35
2023-01-13T04:44:20.484Z,87.45
2023-01-13T04:46:47.415Z,87.20
2023-01-13T04:49:14.113Z,87.26
2023-01-13T04:51:40.835Z,87.07
2023-01-13T04:54:07.656Z,87.45
2023-01-13T04:56:34.316Z,87.41
2023-01-13T04:59:00.996Z,87.24
2023-01-13T05:01:27.883Z,87.12
2023-01-13T05:03:54.618Z,87.25
2023-01-13T05:06:21.273Z,87.08
2023-01-13T05:08:47.934Z,87.60
2023-01-13T05:11:36.653Z,87.23
2023-01-13T05:14:22.080Z,87.50
2023-01-13T05:17:01.035Z,87.33
2023-01-13T05:19:34.894Z,87.45
2023-01-13T05:22:21.378Z,87.29
2023-01-13T05:25:06.617Z,87.50
2023-01-13T05:27:34.256Z,87.78
2023-01-13T05:30:01.758Z,87.61
2023-01-13T05:32:28.753Z,87.72
2023-01-13T05:34:56.216Z,87.56
2023-01-13T05:37:23.818Z,87.66
2023-01-13T05:40:09.193Z,87.52
2023-01-13T05:42:54.602Z,87.38
2023-01-13T05:45:21.528Z,87.47
2023-01-13T05:47:48.231Z,87.42
2023-01-13T05:50:15.543Z,87.54
2023-01-13T05:52:42.248Z,87.52
2023-01-13T05:55:09.872Z,87.37
2023-01-13T05:57:36.600Z,87.65
2023-01-13T06:00:05.349Z,86.97
2023-01-13T06:02:32.120Z,86.95
2023-01-13T06:04:58.802Z,86.97
2023-01-13T06:07:31.751Z,87.04
2023-01-13T06:09:58.437Z,86.92
2023-01-13T06:12:25.091Z,87.31
2023-01-13T06:14:51.772Z,87.24
2023-01-13T06:17:18.709Z,87.33
2023-01-13T06:19:45.426Z,87.32
2023-01-13T06:22:19.308Z,87.12
2023-01-13T06:24:46.316Z,87.37
2023-01-13T06:27:16.789Z,87.45
2023-01-13T06:29:43.603Z,87.40
2023-01-13T06:32:40.577Z,87.56
2023-01-13T06:35:11.892Z,87.79
2023-01-13T06:37:41.918Z,87.56
2023-01-13T06:40:10.148Z,87.63
2023-01-13T06:42:56.263Z,87.56
2023-01-13T06:45:25.386Z,87.66
2023-01-13T06:47:52.047Z,87.75
2023-01-13T06:50:19.071Z,87.65
2023-01-13T06:52:45.849Z,87.72
2023-01-13T06:55:12.597Z,87.87
2023-01-13T06:57:56.732Z,88.02
2023-01-13T07:00:25.915Z,87.66
2023-01-13T07:02:52.758Z,88.14
2023-01-13T07:05:20.648Z,87.98
2023-01-13T07:07:47.297Z,88.06
2023-01-13T07:10:22.329Z,87.98
2023-01-13T07:13:08.329Z,88.20
2023-01-13T07:15:35.546Z,88.10
2023-01-13T07:18:02.689Z,88.00
2023-01-13T07:20:30.435Z,88.01
2023-01-13T07:22:58.160Z,88.13
2023-01-13T07:25:25.141Z,88.20
2023-01-13T07:27:51.850Z,87.87
2023-01-13T07:30:18.817Z,88.30
2023-01-13T07:32:45.617Z,87.91
2023-01-13T07:35:12.333Z,88.37
2023-01-13T07:37:39.654Z,88.30
2023-01-13T07:40:07.115Z,88.24
2023-01-13T07:42:52.281Z,88.04
2023-01-13T07:45:19.024Z,88.06
2023-01-13T07:47:46.073Z,88.35
2023-01-13T07:50:12.798Z,88.34
2023-01-13T07:52:39.445Z,88.31
2023-01-13T07:55:06.557Z,88.42
2023-01-13T07:57:33.237Z,88.46
2023-01-13T07:59:59.887Z,88.19
2023-01-13T08:02:26.734Z,88.39
2023-01-13T08:04:53.510Z,88.25
2023-01-13T08:07:20.225Z,88.39
2023-01-13T08:09:46.907Z,88.47
2023-01-13T08:12:32.553Z,88.46
2023-01-13T08:14:59.230Z,88.32
2023-01-13T08:17:25.912Z,88.37
2023-01-13T08:19:52.556Z,88.55
2023-01-13T08:22:19.214Z,88.60
2023-01-13T08:24:45.925Z,88.58
2023-01-13T08:27:13.498Z,88.49
2023-01-13T08:29:40.124Z,88.30
2023-01-13T08:32:06.972Z,88.61
2023-01-13T08:34:33.696Z,88.36
2023-01-13T08:37:00.396Z,88.73
2023-01-13T08:39:27.378Z,88.53
2023-01-13T08:41:56.897Z,88.67
2023-01-13T08:44:25.251Z,88.45
2023-01-13T08:46:52.315Z,88.44
2023-01-13T08:49:19.770Z,88.65
2023-01-13T08:51:46.439Z,88.54
2023-01-13T08:54:13.376Z,88.55
2023-01-13T08:56:42.564Z,88.56
2023-01-13T08:59:16.212Z,88.53
2023-01-13T09:01:43.172Z,88.56
2023-01-13T09:04:19.611Z,88.70
2023-01-13T09:06:47.505Z,88.54
2023-01-13T09:09:15.287Z,88.53
2023-01-13T09:12:03.964Z,88.57
2023-01-13T09:14:33.842Z,88.37
2023-01-13T09:17:00.808Z,88.55
2023-01-13T09:19:28.712Z,88.52
2023-01-13T09:21:56.490Z,88.32
2023-01-13T09:24:23.768Z,88.24
2023-01-13T09:26:51.019Z,88.53
2023-01-13T09:29:18.157Z,88.67
2023-01-13T09:31:44.901Z,88.54
2023-01-13T09:34:36.834Z,88.94
2023-01-13T09:37:05.705Z,88.73
2023-01-13T09:39:33.460Z,88.55
2023-01-13T09:42:30.034Z,88.57
2023-01-13T09:45:05.331Z,88.99
2023-01-13T09:47:51.463Z,88.81
2023-01-13T09:50:28.174Z,88.70
2023-01-13T09:52:55.796Z,88.57
2023-01-13T09:55:40.174Z,89.13
2023-01-13T09:58:14.656Z,88.62
2023-01-13T10:00:59.428Z,89.16
2023-01-13T10:03:35.123Z,89.25
2023-01-13T10:06:06.852Z,88.93
2023-01-13T10:08:42.015Z,88.79
2023-01-13T10:11:39.671Z,88.93
2023-01-13T10:14:39.787Z,89.08
2023-01-13T10:17:27.457Z,89.42
2023-01-13T10:20:18.346Z,89.09
2023-01-13T10:22:47.989Z,88.80
2023-01-13T10:25:23.462Z,89.35
2023-01-13T10:27:52.876Z,88.93
2023-01-13T10:30:31.634Z,88.85
2023-01-13T10:33:10.112Z,89.23
2023-01-13T10:36:16.387Z,89.12
2023-01-13T10:38:46.395Z,89.13
2023-01-13T10:41:15.783Z,89.27
2023-01-13T10:43:57.713Z,89.06
2023-01-13T10:46:24.986Z,88.96
2023-01-13T10:49:01.435Z,88.94
2023-01-13T10:51:42.415Z,89.55
2023-01-13T10:54:12.862Z,89.38
2023-01-13T10:56:42.244Z,89.04
2023-01-13T10:59:23.936Z,89.19
2023-01-13T11:02:23.505Z,89.28
2023-01-13T11:04:53.736Z,89.30
2023-01-13T11:07:35.567Z,89.47
2023-01-13T11:10:20.359Z,88.94
2023-01-13T11:12:54.309Z,89.07
2023-01-13T11:15:31.768Z,89.24
2023-01-13T11:18:05.142Z,89.47
2023-01-13T11:20:41.299Z,89.91
2023-01-13T11:23:25.464Z,89.62
2023-01-13T11:25:59.506Z,89.30
2023-01-13T11:28:55.274Z,89.77
2023-01-13T11:31:34.636Z,89.63
2023-01-13T11:34:24.287Z,89.48
2023-01-13T11:36:54.198Z,89.64
2023-01-13T11:39:44.185Z,89.85
2023-01-13T11:42:26.321Z,89.61
2023-01-13T11:45:16.669Z,89.15
2023-01-13T11:47:48.626Z,89.55
2023-01-13T11:50:23.538Z,89.53
2023-01-13T11:52:50.133Z,89.69
2023-01-13T11:55:39.884Z,89.99
2023-01-13T11:58:45.643Z,89.66
2023-01-13T12:01:52.068Z,89.73
2023-01-13T12:04:32.408Z,89.89
2023-01-13T12:07:25.061Z,89.21
2023-01-13T12:10:08.939Z,89.46
2023-01-13T12:12:51.031Z,89.79
2023-01-13T12:15:21.114Z,89.99
2023-01-13T12:18:06.644Z,89.74
2023-01-13T12:21:01.638Z,89.88
2023-01-13T12:24:00.925Z,89.73
2023-01-13T12:26:32.750Z,89.69
2023-01-13T12:29:07.557Z,90.07
2023-01-13T12:31:38.469Z,89.83
2023-01-13T12:34:51.095Z,90.05
2023-01-13T12:37:43.134Z,89.54
2023-01-13T12:40:20.202Z,89.62
2023-01-13T12:43:27.751Z,89.34
2023-01-13T12:46:21.456Z,89.56
2023-01-13T12:48:57.120Z,90.08
2023-01-13T12:51:57.300Z,90.05
2023-01-13T12:54:45.102Z,89.81
2023-01-13T12:57:19.004Z,89.77
2023-01-13T13:00:06.158Z,89.51
2023-01-13T13:02:40.195Z,89.78
2023-01-13T13:05:15.887Z,89.06
2023-01-13T13:08:07.629Z,89.26
2023-01-13T13:10:38.883Z,89.70
2023-01-13T13:13:39.462Z,89.61
2023-01-13T13:16:31.934Z,88.89
2023-01-13T13:19:20.315Z,89.66
2023-01-13T13:22:11.815Z,88.94
2023-01-13T13:25:00.308Z,88.95
2023-01-13T13:27:26.910Z,89.56
2023-01-13T13:29:59.656Z,89.16
2023-01-13T13:32:48.140Z,89.25
2023-01-13T13:35:36.367Z,89.21
2023-01-13T13:38:40.019Z,88.96
2023-01-13T13:41:40.935Z,89.13
2023-01-13T13:44:48.079Z,89.14
2023-01-13T13:47:14.931Z,88.96
2023-01-13T13:49:52.675Z,88.90
2023-01-13T13:52:22.602Z,89.24
2023-01-13T13:54:53.998Z,89.17
2023-01-13T13:57:27.189Z,89.41
2023-01-13T14:00:00.422Z,89.11
2023-01-13T14:02:34.749Z,89.13
2023-01-13T14:05:09.175Z,89.12
2023-01-13T14:07:46.554Z,89.17
2023-01-13T14:10:19.352Z,89.16
2023-01-13T14:12:46.141Z,88.77
2023-01-13T14:15:35.032Z,89.08
2023-01-13T14:18:11.199Z,89.46
2023-01-13T14:20:38.033Z,89.35
2023-01-13T14:23:05.930Z,88.94
2023-01-13T14:25:39.820Z,89.20
2023-01-13T14:28:28.568Z,89.41
2023-01-13T14:30:56.771Z,89.06
2023-01-13T14:33:47.234Z,89.50
2023-01-13T14:36:22.543Z,89.71
2023-01-13T14:39:02.713Z,89.63
2023-01-13T14:41:47.126Z,89.01
2023-01-13T14:44:36.696Z,88.92
2023-01-13T14:47:17.677Z,89.28
2023-01-13T14:49:55.002Z,89.02
2023-01-13T14:52:24.520Z,89.51
2023-01-13T14:55:19.862Z,89.46
2023-01-13T14:57:47.130Z,89.55
2023-01-13T15:00:13.748Z,89.55
2023-01-13T15:02:58.891Z,89.00
2023-01-13T15:05:25.695Z,88.98
2023-01-13T15:07:55.075Z,89.36
2023-01-13T15:10:25.358Z,89.33
2023-01-13T15:12:54.482Z,88.93
2023-01-13T15:15:24.205Z,88.73
2023-01-13T15:17:51.649Z,89.24
2023-01-13T15:20:20.783Z,89.29
2023-01-13T15:22:52.180Z,88.82
2023-01-13T15:25:20.178Z,89.22
2023-01-13T15:27:50.966Z,89.17
2023-01-13T15:30:21.745Z,89.17
2023-01-13T15:32:48.576Z,89.16
2023-01-13T15:35:17.387Z,89.35
2023-01-13T15:37:45.965Z,89.09
2023-01-13T15:40:23.296Z,89.51
2023-01-13T15:43:08.626Z,89.19
2023-01-13T15:45:55.519Z,89.16
2023-01-13T15:48:24.335Z,89.67
2023-01-13T15:50:51.379Z,89.26
2023-01-13T15:53:18.263Z,88.97
2023-01-13T15:55:48.837Z,88.98
2023-01-13T15:58:18.991Z,89.18
2023-01-13T16:00:45.681Z,89.13
2023-01-13T16:03:16.504Z,89.51
2023-01-13T16:05:44.545Z,89.50
2023-01-13T16:08:15.665Z,89.28
2023-01-13T16:10:43.132Z,89.49
2023-01-13T16:13:09.841Z,89.15
2023-01-13T16:15:36.853Z,88.99
2023-01-13T16:18:04.990Z,88.98
2023-01-13T16:20:32.381Z,89.00
2023-01-13T16:22:59.072Z,89.45
2023-01-13T16:25:27.452Z,89.53
2023-01-13T16:27:56.323Z,89.04
2023-01-13T16:30:37.166Z,88.82
2023-01-13T16:33:04.012Z,89.25
2023-01-13T16:35:32.351Z,88.90
2023-01-13T16:37:59.951Z,88.98
2023-01-13T16:40:33.366Z,89.24
2023-01-13T16:43:03.280Z,88.72
2023-01-13T16:45:31.296Z,89.43
2023-01-13T16:47:58.009Z,89.24
2023-01-13T16:50:24.624Z,89.21
2023-01-13T16:52:51.304Z,89.13
2023-01-13T16:55:20.668Z,89.10
2023-01-13T16:57:47.985Z,89.35
2023-01-13T17:00:15.272Z,89.46
2023-01-13T17:02:41.936Z,89.30
2023-01-13T17:05:12.507Z,88.99
2023-01-13T17:07:40.892Z,88.80
2023-01-13T17:10:12.054Z,88.61
2023-01-13T17:12:38.790Z,89.31
2023-01-13T17:15:06.041Z,89.19
2023-01-13T17:17:32.718Z,89.47
2023-01-13T17:19:59.974Z,89.58
2023-01-13T17:22:26.631Z,89.29
2023-01-13T17:24:53.328Z,88.82
2023-01-13T17:27:21.321Z,89.07
2023-01-13T17:29:48.097Z,88.82
2023-01-13T17:32:17.228Z,88.78
2023-01-13T17:34:45.023Z,89.47
2023-01-13T17:37:14.598Z,89.37
2023-01-13T17:39:46.509Z,89.34
2023-01-13T17:42:13.340Z,89.33
2023-01-13T17:44:40.649Z,89.16
2023-01-13T17:47:07.450Z,88.84
2023-01-13T17:49:34.161Z,89.18
2023-01-13T17:52:01.717Z,88.81
2023-01-13T17:54:28.379Z,88.63
2023-01-13T17:56:56.566Z,88.67
2023-01-13T17:59:24.447Z,88.74
2023-01-13T18:01:51.982Z,88.88
2023-01-13T18:04:24.003Z,88.92
2023-01-13T18:06:51.593Z,88.61
2023-01-13T18:09:18.254Z,88.68
2023-01-13T18:11:47.238Z,88.68
2023-01-13T18:14:14.240Z,89.06
2023-01-13T18:16:41.004Z,88.40
2023-01-13T18:19:26.817Z,88.50
2023-01-13T18:22:12.345Z,88.97
2023-01-13T18:24:57.901Z,89.06
2023-01-13T18:27:35.177Z,88.50
2023-01-13T18:30:03.709Z,88.83
2023-01-13T18:32:33.263Z,88.97
2023-01-13T18:35:06.059Z,88.51
2023-01-13T18:37:36.159Z,89.01
2023-01-13T18:40:04.198Z,88.76
2023-01-13T18:42:49.432Z,88.87
2023-01-13T18:45:16.124Z,88.78
2023-01-13T18:47:42.789Z,89.15
2023-01-13T18:50:12.321Z,89.13
2023-01-13T18:52:39.196Z,88.60
2023-01-13T18:55:06.045Z,88.90
2023-01-13T18:57:33.402Z,89.38
2023-01-13T19:00:00.690Z,88.60
2023-01-13T19:02:30.027Z,89.19
2023-01-13T19:04:57.430Z,88.52
2023-01-13T19:07:28.393Z,88.93
2023-01-13T19:09:55.874Z,88.84
2023-01-13T19:12:32.101Z,88.70
2023-01-13T19:14:59.801Z,89.06
2023-01-13T19:17:33.720Z,89.08
2023-01-13T19:20:03.806Z,89.08
2023-01-13T19:22:36.333Z,89.12
2023-01-13T19:25:04.376Z,88.38
2023-01-13T19:27:35.751Z,88.96
2023-01-13T19:30:04.756Z,89.15
2023-01-13T19:32:32.844Z,89.17
2023-01-13T19:35:02.251Z,88.74
2023-01-13T19:37:30.549Z,88.85
2023-01-13T19:39:58.899Z,88.48
2023-01-13T19:42:43.988Z,88.55
2023-01-13T19:45:27.743Z,88.45
2023-01-13T19:47:56.033Z,88.53
2023-01-13T19:50:23.468Z,88.77
2023-01-13T19:52:52.956Z,88.50
2023-01-13T19:55:22.193Z,88.62
2023-01-13T19:57:51.804Z,88.85
2023-01-13T20:00:20.925Z,88.69
2023-01-13T20:02:49.683Z,88.62
2023-01-13T20:05:24.438Z,88.50
2023-01-13T20:07:51.863Z,88.43
2023-01-13T20:10:22.234Z,88.34
2023-01-13T20:12:49.067Z,88.46
2023-01-13T20:15:16.050Z,88.41
2023-01-13T20:17:43.823Z,88.52
2023-01-13T20:20:12.166Z,88.48
2023-01-13T20:22:39.824Z,88.56
2023-01-13T20:25:13.492Z,88.93
2023-01-13T20:27:40.183Z,88.72
2023-01-13T20:30:15.779Z,88.27
2023-01-13T20:32:45.632Z,88.41
2023-01-13T20:35:12.440Z,88.53
2023-01-13T20:37:40.884Z,88.77
2023-01-13T20:40:13.458Z,88.33
2023-01-13T20:42:44.974Z,89.01
2023-01-13T20:45:17.159Z,88.73
2023-01-13T20:47:44.711Z,88.63
2023-01-13T20:50:14.728Z,88.42
2023-01-13T20:52:41.466Z,88.90
2023-01-13T20:55:09.547Z,88.23
2023-01-13T20:57:38.539Z,88.42
2023-01-13T21:00:08.826Z,88.17
2023-01-13T21:02:35.569Z,88.51
2023-01-13T21:05:02.213Z,88.90
2023-01-13T21:07:29.116Z,88.78
2023-01-13T21:09:57.411Z,89.05
2023-01-13T21:12:42.603Z,88.80
2023-01-13T21:15:20.014Z,88.42
2023-01-13T21:18:07.492Z,88.54
2023-01-13T21:20:35.567Z,88.67
2023-01-13T21:23:03.802Z,88.44
2023-01-13T21:25:31.140Z,88.55
2023-01-13T21:28:05.669Z,89.02
2023-01-13T21:30:33.613Z,88.90
2023-01-13T21:33:01.057Z,88.62
2023-01-13T21:35:27.918Z,89.12
2023-01-13T21:37:54.580Z,88.34
2023-01-13T21:40:21.270Z,88.71
2023-01-13T21:43:06.521Z,88.72
2023-01-13T21:45:52.130Z,88.96
2023-01-13T21:48:18.848Z,88.96
2023-01-13T21:50:45.588Z,88.81
2023-01-13T21:53:12.289Z,88.51
2023-01-13T21:55:39.017Z,88.60
2023-01-13T21:58:11.684Z,88.71
2023-01-13T22:00:39.991Z,88.49
2023-01-13T22:03:08.491Z,88.45
2023-01-13T22:05:36.265Z,88.67
2023-01-13T22:08:03.160Z,88.79
2023-01-13T22:10:30.955Z,88.46
2023-01-13T22:13:21.824Z,88.95
2023-01-13T22:15:48.537Z,88.88
2023-01-13T22:18:19.844Z,88.22
2023-01-13T22:20:46.696Z,88.74
2023-01-13T22:23:13.724Z,88.38
2023-01-13T22:25:40.557Z,88.46
2023-01-13T22:28:09.202Z,88.56
2023-01-13T22:30:36.178Z,88.48
2023-01-13T22:33:02.926Z,88.99
2023-01-13T22:35:29.646Z,88.30
2023-01-13T22:37:56.301Z,88.15
2023-01-13T22:40:22.947Z,88.64
2023-01-13T22:42:49.656Z,88.97
2023-01-13T22:45:16.539Z,88.40
2023-01-13T22:47:43.274Z,88.56
2023-01-13T22:50:10.384Z,88.43
2023-01-13T22:52:37.140Z,88.65
2023-01-13T22:55:04.381Z,88.21
2023-01-13T22:57:35.968Z,88.79
2023-01-13T23:00:06.324Z,88.70
2023-01-13T23:02:34.598Z,89.11
2023-01-13T23:05:01.658Z,88.99
2023-01-13T23:07:28.794Z,88.72
2023-01-13T23:09:55.508Z,88.17
2023-01-13T23:12:22.163Z,88.36
2023-01-13T23:14:48.802Z,89.08
2023-01-13T23:17:15.453Z,89.15
2023-01-13T23:19:42.105Z,88.86
2023-01-13T23:22:08.749Z,88.38
2023-01-13T23:24:35.401Z,88.63
2023-01-13T23:27:02.093Z,88.56
2023-01-13T23:29:28.744Z,88.91
2023-01-13T23:31:55.426Z,88.67
2023-01-13T23:34:22.069Z,88.75
2023-01-13T23:36:48.774Z,88.94
2023-01-13T23:39:15.423Z,89.14
2023-01-13T23:41:42.057Z,89.26
2023-01-13T23:44:09.346Z,89.03
2023-01-13T23:46:36.105Z,88.61
2023-01-13T23:49:03.853Z,88.78
2023-01-13T23:51:30.914Z,88.67
2023-01-13T23:53:59.188Z,89.16
2023-01-13T23:56:29.198Z,89.40
2023-01-13T23:58:56.333Z,89.25
